Firestone Park, California
Current Conditions -  °F | °C
As of 3:47 PM on Wednesday 26 Nov 2014 (Local Time) from KCQT Reporting Station
Clear Clear  
Wind Chill: 79°   Ceiling: Unl
Heat Index: 79°   Visibility: 10mi
Dew Point: 25°   Wind: 3mph
Humidity: 14%   Direction: 280°W
Pressure: 30.12"   Gusts: NA
Location:  33.9733°N, 118.248°W
Report Text: KCQT 262347Z AUTO 28003KT 10SM CLR 26/M04 A3012 RMK AO2 SLP198 T02611039 10294 20233 56008
Loading
Personal Weather Stations






























Interactive Weather Map New forecast layout! Learn more

10-Day Weather Forecast

Advertisements
Track Severe Weather on mobile